sensor_id;sensor_type;location;lat;lon;timestamp;P1;durP1;ratioP1;P2;durP2;ratioP2
43216;SDS011;71549;42.686;23.300;2024-02-23T00:02:24;6.57;;;5.45;;
43216;SDS011;71549;42.686;23.300;2024-02-23T00:04:26;6.57;;;5.97;;
43216;SDS011;71549;42.686;23.300;2024-02-23T00:06:28;7.43;;;5.45;;
43216;SDS011;71549;42.686;23.300;2024-02-23T00:08:29;6.63;;;5.95;;
43216;SDS011;71549;42.686;23.300;2024-02-23T00:10:31;6.50;;;5.50;;
43216;SDS011;71549;42.686;23.300;2024-02-23T00:12:33;6.20;;;5.70;;
43216;SDS011;71549;42.686;23.300;2024-02-23T00:14:39;5.90;;;5.40;;
43216;SDS011;71549;42.686;23.300;2024-02-23T00:16:41;5.97;;;5.45;;
43216;SDS011;71549;42.686;23.300;2024-02-23T00:18:43;6.25;;;5.65;;
43216;SDS011;71549;42.686;23.300;2024-02-23T00:20:46;5.32;;;4.82;;
43216;SDS011;71549;42.686;23.300;2024-02-23T00:22:48;5.53;;;5.03;;
43216;SDS011;71549;42.686;23.300;2024-02-23T00:24:50;6.28;;;5.68;;
43216;SDS011;71549;42.686;23.300;2024-02-23T00:26:52;5.57;;;5.03;;
43216;SDS011;71549;42.686;23.300;2024-02-23T00:28:54;6.20;;;5.60;;
43216;SDS011;71549;42.686;23.300;2024-02-23T00:30:56;6.10;;;5.50;;
43216;SDS011;71549;42.686;23.300;2024-02-23T00:32:58;6.88;;;6.28;;
43216;SDS011;71549;42.686;23.300;2024-02-23T00:35:00;6.45;;;5.85;;
43216;SDS011;71549;42.686;23.300;2024-02-23T00:37:02;5.35;;;4.85;;
43216;SDS011;71549;42.686;23.300;2024-02-23T00:39:06;5.90;;;5.30;;
43216;SDS011;71549;42.686;23.300;2024-02-23T00:41:07;6.07;;;5.55;;
43216;SDS011;71549;42.686;23.300;2024-02-23T00:43:09;6.50;;;5.70;;
43216;SDS011;71549;42.686;23.300;2024-02-23T00:45:11;5.93;;;5.32;;
43216;SDS011;71549;42.686;23.300;2024-02-23T00:47:15;5.18;;;4.68;;
43216;SDS011;71549;42.686;23.300;2024-02-23T00:49:17;5.55;;;5.00;;
43216;SDS011;71549;42.686;23.300;2024-02-23T00:51:19;5.78;;;5.28;;
43216;SDS011;71549;42.686;23.300;2024-02-23T00:53:21;5.53;;;5.03;;
43216;SDS011;71549;42.686;23.300;2024-02-23T00:55:23;5.57;;;5.10;;
43216;SDS011;71549;42.686;23.300;2024-02-23T00:57:27;5.40;;;4.93;;
43216;SDS011;71549;42.686;23.300;2024-02-23T00:59:29;5.43;;;4.93;;
43216;SDS011;71549;42.686;23.300;2024-02-23T01:01:32;6.05;;;5.45;;
43216;SDS011;71549;42.686;23.300;2024-02-23T01:03:35;5.30;;;4.90;;
43216;SDS011;71549;42.686;23.300;2024-02-23T01:05:37;4.88;;;4.47;;
43216;SDS011;71549;42.686;23.300;2024-02-23T01:07:39;5.25;;;4.75;;
43216;SDS011;71549;42.686;23.300;2024-02-23T01:09:41;4.88;;;4.47;;
43216;SDS011;71549;42.686;23.300;2024-02-23T01:11:43;5.40;;;5.00;;
43216;SDS011;71549;42.686;23.300;2024-02-23T01:13:44;5.30;;;4.80;;
43216;SDS011;71549;42.686;23.300;2024-02-23T01:15:47;5.50;;;5.00;;
43216;SDS011;71549;42.686;23.300;2024-02-23T01:17:49;5.30;;;4.78;;
43216;SDS011;71549;42.686;23.300;2024-02-23T01:19:52;5.57;;;5.07;;
43216;SDS011;71549;42.686;23.300;2024-02-23T01:21:54;5.90;;;5.30;;
43216;SDS011;71549;42.686;23.300;2024-02-23T01:23:59;5.15;;;4.70;;
43216;SDS011;71549;42.686;23.300;2024-02-23T01:26:01;5.20;;;4.70;;
43216;SDS011;71549;42.686;23.300;2024-02-23T01:28:04;5.57;;;5.07;;
43216;SDS011;71549;42.686;23.300;2024-02-23T01:30:05;5.03;;;4.63;;
43216;SDS011;71549;42.686;23.300;2024-02-23T01:32:08;5.78;;;5.18;;
43216;SDS011;71549;42.686;23.300;2024-02-23T01:34:10;7.07;;;5.05;;
43216;SDS011;71549;42.686;23.300;2024-02-23T01:36:12;5.38;;;4.88;;
43216;SDS011;71549;42.686;23.300;2024-02-23T01:40:20;4.65;;;4.25;;
43216;SDS011;71549;42.686;23.300;2024-02-23T01:42:22;5.18;;;4.70;;
43216;SDS011;71549;42.686;23.300;2024-02-23T01:44:26;5.53;;;5.03;;
43216;SDS011;71549;42.686;23.300;2024-02-23T01:46:28;5.40;;;4.90;;
43216;SDS011;71549;42.686;23.300;2024-02-23T01:48:30;5.10;;;4.70;;
43216;SDS011;71549;42.686;23.300;2024-02-23T01:50:32;4.80;;;4.40;;
43216;SDS011;71549;42.686;23.300;2024-02-23T01:52:36;5.78;;;5.18;;
43216;SDS011;71549;42.686;23.300;2024-02-23T01:54:38;4.72;;;4.32;;
43216;SDS011;71549;42.686;23.300;2024-02-23T01:56:41;5.15;;;4.65;;
43216;SDS011;71549;42.686;23.300;2024-02-23T01:58:42;5.25;;;4.75;;
43216;SDS011;71549;42.686;23.300;2024-02-23T02:00:45;4.87;;;4.47;;
43216;SDS011;71549;42.686;23.300;2024-02-23T02:02:47;5.03;;;4.53;;
43216;SDS011;71549;42.686;23.300;2024-02-23T02:04:50;5.05;;;4.55;;
43216;SDS011;71549;42.686;23.300;2024-02-23T02:06:52;4.65;;;4.25;;
43216;SDS011;71549;42.686;23.300;2024-02-23T02:08:55;5.18;;;4.68;;
43216;SDS011;71549;42.686;23.300;2024-02-23T02:13:02;4.43;;;4.03;;
43216;SDS011;71549;42.686;23.300;2024-02-23T02:15:06;5.32;;;4.90;;
43216;SDS011;71549;42.686;23.300;2024-02-23T02:17:08;4.97;;;4.57;;
43216;SDS011;71549;42.686;23.300;2024-02-23T02:19:10;4.65;;;4.25;;
43216;SDS011;71549;42.686;23.300;2024-02-23T02:21:13;3.65;;;3.30;;
43216;SDS011;71549;42.686;23.300;2024-02-23T02:23:14;4.20;;;3.83;;
43216;SDS011;71549;42.686;23.300;2024-02-23T02:25:18;4.75;;;4.35;;
43216;SDS011;71549;42.686;23.300;2024-02-23T02:29:21;4.80;;;4.40;;
43216;SDS011;71549;42.686;23.300;2024-02-23T02:31:23;4.32;;;3.92;;
43216;SDS011;71549;42.686;23.300;2024-02-23T02:33:24;4.60;;;4.20;;
43216;SDS011;71549;42.686;23.300;2024-02-23T02:35:26;4.35;;;4.05;;
43216;SDS011;71549;42.686;23.300;2024-02-23T02:37:28;4.32;;;4.03;;
43216;SDS011;71549;42.686;23.300;2024-02-23T02:39:29;4.95;;;4.55;;
43216;SDS011;71549;42.686;23.300;2024-02-23T02:41:33;4.78;;;4.38;;
43216;SDS011;71549;42.686;23.300;2024-02-23T02:43:35;4.50;;;4.10;;
43216;SDS011;71549;42.686;23.300;2024-02-23T02:45:36;4.65;;;4.25;;
43216;SDS011;71549;42.686;23.300;2024-02-23T02:47:39;4.60;;;4.10;;
43216;SDS011;71549;42.686;23.300;2024-02-23T02:49:40;4.55;;;4.15;;
43216;SDS011;71549;42.686;23.300;2024-02-23T02:51:42;4.63;;;4.22;;
43216;SDS011;71549;42.686;23.300;2024-02-23T02:53:45;4.65;;;4.25;;
43216;SDS011;71549;42.686;23.300;2024-02-23T02:55:46;4.88;;;4.43;;
43216;SDS011;71549;42.686;23.300;2024-02-23T02:57:50;4.75;;;4.10;;
43216;SDS011;71549;42.686;23.300;2024-02-23T02:59:52;4.05;;;3.65;;
43216;SDS011;71549;42.686;23.300;2024-02-23T03:01:53;4.85;;;4.43;;
43216;SDS011;71549;42.686;23.300;2024-02-23T03:03:55;4.55;;;4.15;;
43216;SDS011;71549;42.686;23.300;2024-02-23T03:05:57;4.70;;;4.30;;
43216;SDS011;71549;42.686;23.300;2024-02-23T03:07:59;4.38;;;4.00;;
43216;SDS011;71549;42.686;23.300;2024-02-23T03:10:01;4.57;;;4.18;;
43216;SDS011;71549;42.686;23.300;2024-02-23T03:12:04;4.40;;;4.00;;
43216;SDS011;71549;42.686;23.300;2024-02-23T03:14:07;4.18;;;3.88;;
43216;SDS011;71549;42.686;23.300;2024-02-23T03:16:14;4.53;;;4.13;;
43216;SDS011;71549;42.686;23.300;2024-02-23T03:18:16;3.97;;;3.67;;
43216;SDS011;71549;42.686;23.300;2024-02-23T03:20:17;4.20;;;3.80;;
43216;SDS011;71549;42.686;23.300;2024-02-23T03:22:20;4.47;;;4.07;;
43216;SDS011;71549;42.686;23.300;2024-02-23T03:24:22;4.32;;;3.92;;
43216;SDS011;71549;42.686;23.300;2024-02-23T03:26:24;4.45;;;4.05;;
43216;SDS011;71549;42.686;23.300;2024-02-23T03:28:26;4.47;;;4.07;;
43216;SDS011;71549;42.686;23.300;2024-02-23T03:30:29;4.45;;;4.05;;
43216;SDS011;71549;42.686;23.300;2024-02-23T03:32:32;3.90;;;3.60;;
43216;SDS011;71549;42.686;23.300;2024-02-23T03:34:36;4.63;;;4.22;;
43216;SDS011;71549;42.686;23.300;2024-02-23T03:36:38;4.30;;;3.90;;
43216;SDS011;71549;42.686;23.300;2024-02-23T03:38:40;4.38;;;3.97;;
43216;SDS011;71549;42.686;23.300;2024-02-23T03:40:42;4.32;;;3.92;;
43216;SDS011;71549;42.686;23.300;2024-02-23T03:42:45;4.90;;;4.50;;
43216;SDS011;71549;42.686;23.300;2024-02-23T03:44:47;4.05;;;3.75;;
43216;SDS011;71549;42.686;23.300;2024-02-23T03:46:50;4.47;;;4.07;;
43216;SDS011;71549;42.686;23.300;2024-02-23T03:48:52;4.25;;;3.85;;
43216;SDS011;71549;42.686;23.300;2024-02-23T03:50:54;4.00;;;3.58;;
43216;SDS011;71549;42.686;23.300;2024-02-23T03:52:57;4.18;;;3.88;;
43216;SDS011;71549;42.686;23.300;2024-02-23T03:54:59;4.22;;;3.83;;
43216;SDS011;71549;42.686;23.300;2024-02-23T03:57:01;3.90;;;3.60;;
43216;SDS011;71549;42.686;23.300;2024-02-23T03:59:03;4.18;;;3.75;;
43216;SDS011;71549;42.686;23.300;2024-02-23T04:01:05;4.60;;;4.20;;
43216;SDS011;71549;42.686;23.300;2024-02-23T04:03:08;4.30;;;3.95;;
43216;SDS011;71549;42.686;23.300;2024-02-23T04:05:10;3.50;;;3.20;;
43216;SDS011;71549;42.686;23.300;2024-02-23T04:07:12;3.97;;;3.60;;
43216;SDS011;71549;42.686;23.300;2024-02-23T04:09:13;4.05;;;3.65;;
43216;SDS011;71549;42.686;23.300;2024-02-23T04:11:15;3.92;;;3.63;;
43216;SDS011;71549;42.686;23.300;2024-02-23T04:13:17;3.83;;;3.53;;
43216;SDS011;71549;42.686;23.300;2024-02-23T04:15:20;3.70;;;3.35;;
43216;SDS011;71549;42.686;23.300;2024-02-23T04:17:22;4.22;;;3.75;;
43216;SDS011;71549;42.686;23.300;2024-02-23T04:19:25;3.65;;;3.35;;
43216;SDS011;71549;42.686;23.300;2024-02-23T04:23:29;3.78;;;3.47;;
43216;SDS011;71549;42.686;23.300;2024-02-23T04:25:31;3.20;;;3.00;;
43216;SDS011;71549;42.686;23.300;2024-02-23T04:27:33;3.88;;;3.58;;
43216;SDS011;71549;42.686;23.300;2024-02-23T04:29:35;3.70;;;3.40;;
43216;SDS011;71549;42.686;23.300;2024-02-23T04:31:36;3.97;;;3.67;;
43216;SDS011;71549;42.686;23.300;2024-02-23T04:33:38;3.72;;;3.42;;
43216;SDS011;71549;42.686;23.300;2024-02-23T04:35:42;4.20;;;3.80;;
43216;SDS011;71549;42.686;23.300;2024-02-23T04:37:44;3.83;;;3.53;;
43216;SDS011;71549;42.686;23.300;2024-02-23T04:39:46;3.88;;;3.58;;
43216;SDS011;71549;42.686;23.300;2024-02-23T04:41:48;3.97;;;3.67;;
43216;SDS011;71549;42.686;23.300;2024-02-23T04:43:49;4.53;;;4.13;;
43216;SDS011;71549;42.686;23.300;2024-02-23T04:45:52;3.93;;;3.60;;
43216;SDS011;71549;42.686;23.300;2024-02-23T04:48:11;3.95;;;3.63;;
43216;SDS011;71549;42.686;23.300;2024-02-23T04:50:13;3.58;;;3.28;;
43216;SDS011;71549;42.686;23.300;2024-02-23T04:52:17;4.32;;;3.70;;
43216;SDS011;71549;42.686;23.300;2024-02-23T04:54:20;4.10;;;3.70;;
43216;SDS011;71549;42.686;23.300;2024-02-23T04:56:22;3.97;;;3.63;;
43216;SDS011;71549;42.686;23.300;2024-02-23T04:58:24;4.03;;;3.63;;
43216;SDS011;71549;42.686;23.300;2024-02-23T05:00:26;3.80;;;3.50;;
43216;SDS011;71549;42.686;23.300;2024-02-23T05:02:33;3.60;;;3.30;;
43216;SDS011;71549;42.686;23.300;2024-02-23T05:04:35;3.90;;;3.60;;
43216;SDS011;71549;42.686;23.300;2024-02-23T05:06:37;3.55;;;3.35;;
43216;SDS011;71549;42.686;23.300;2024-02-23T05:08:39;4.03;;;3.65;;
43216;SDS011;71549;42.686;23.300;2024-02-23T05:10:42;4.10;;;3.80;;
43216;SDS011;71549;42.686;23.300;2024-02-23T05:12:44;4.07;;;3.67;;
43216;SDS011;71549;42.686;23.300;2024-02-23T05:14:46;4.13;;;3.83;;
43216;SDS011;71549;42.686;23.300;2024-02-23T05:16:48;3.80;;;3.50;;
43216;SDS011;71549;42.686;23.300;2024-02-23T05:18:50;3.70;;;3.40;;
43216;SDS011;71549;42.686;23.300;2024-02-23T05:20:52;3.40;;;3.13;;
43216;SDS011;71549;42.686;23.300;2024-02-23T05:22:53;3.90;;;3.53;;
43216;SDS011;71549;42.686;23.300;2024-02-23T05:24:56;4.40;;;4.00;;
43216;SDS011;71549;42.686;23.300;2024-02-23T05:26:58;4.15;;;3.80;;
43216;SDS011;71549;42.686;23.300;2024-02-23T05:29:02;4.78;;;4.38;;
43216;SDS011;71549;42.686;23.300;2024-02-23T05:31:05;3.92;;;3.63;;
43216;SDS011;71549;42.686;23.300;2024-02-23T05:33:07;4.13;;;3.83;;
43216;SDS011;71549;42.686;23.300;2024-02-23T05:35:09;4.05;;;3.65;;
43216;SDS011;71549;42.686;23.300;2024-02-23T05:37:11;4.35;;;3.95;;
43216;SDS011;71549;42.686;23.300;2024-02-23T05:39:13;3.85;;;3.50;;
43216;SDS011;71549;42.686;23.300;2024-02-23T05:41:17;3.88;;;3.58;;
43216;SDS011;71549;42.686;23.300;2024-02-23T05:45:21;3.83;;;3.47;;
43216;SDS011;71549;42.686;23.300;2024-02-23T05:47:23;4.03;;;3.70;;
43216;SDS011;71549;42.686;23.300;2024-02-23T05:49:25;4.45;;;4.05;;
43216;SDS011;71549;42.686;23.300;2024-02-23T05:51:27;3.72;;;3.42;;
43216;SDS011;71549;42.686;23.300;2024-02-23T05:53:30;3.90;;;3.60;;
43216;SDS011;71549;42.686;23.300;2024-02-23T05:55:33;3.70;;;3.40;;
43216;SDS011;71549;42.686;23.300;2024-02-23T05:57:36;3.60;;;3.30;;
43216;SDS011;71549;42.686;23.300;2024-02-23T05:59:38;4.05;;;3.67;;
43216;SDS011;71549;42.686;23.300;2024-02-23T06:01:40;4.28;;;3.88;;
43216;SDS011;71549;42.686;23.300;2024-02-23T06:03:42;3.47;;;3.17;;
43216;SDS011;71549;42.686;23.300;2024-02-23T06:05:44;4.07;;;3.78;;
43216;SDS011;71549;42.686;23.300;2024-02-23T06:07:46;4.32;;;3.97;;
43216;SDS011;71549;42.686;23.300;2024-02-23T06:09:48;3.78;;;3.47;;
43216;SDS011;71549;42.686;23.300;2024-02-23T06:11:50;4.45;;;3.92;;
43216;SDS011;71549;42.686;23.300;2024-02-23T06:13:54;3.10;;;2.85;;
43216;SDS011;71549;42.686;23.300;2024-02-23T06:17:57;4.25;;;3.90;;
43216;SDS011;71549;42.686;23.300;2024-02-23T06:19:59;3.97;;;3.67;;
43216;SDS011;71549;42.686;23.300;2024-02-23T06:22:01;3.97;;;3.45;;
43216;SDS011;71549;42.686;23.300;2024-02-23T06:24:03;3.80;;;3.50;;
43216;SDS011;71549;42.686;23.300;2024-02-23T06:26:05;4.32;;;3.92;;
43216;SDS011;71549;42.686;23.300;2024-02-23T06:28:07;3.95;;;3.65;;
43216;SDS011;71549;42.686;23.300;2024-02-23T06:30:11;4.47;;;4.07;;
43216;SDS011;71549;42.686;23.300;2024-02-23T06:32:13;4.18;;;3.85;;
43216;SDS011;71549;42.686;23.300;2024-02-23T06:34:16;3.60;;;3.30;;
43216;SDS011;71549;42.686;23.300;2024-02-23T06:36:18;4.13;;;3.70;;
43216;SDS011;71549;42.686;23.300;2024-02-23T06:38:20;4.07;;;3.67;;
43216;SDS011;71549;42.686;23.300;2024-02-23T06:40:22;5.05;;;4.55;;
43216;SDS011;71549;42.686;23.300;2024-02-23T06:42:24;3.88;;;3.47;;
43216;SDS011;71549;42.686;23.300;2024-02-23T06:44:25;3.72;;;3.10;;
43216;SDS011;71549;42.686;23.300;2024-02-23T06:46:29;4.28;;;3.88;;
43216;SDS011;71549;42.686;23.300;2024-02-23T06:48:31;3.70;;;3.40;;
43216;SDS011;71549;42.686;23.300;2024-02-23T06:50:33;4.10;;;3.70;;
43216;SDS011;71549;42.686;23.300;2024-02-23T06:52:35;4.53;;;3.85;;
43216;SDS011;71549;42.686;23.300;2024-02-23T06:54:37;4.57;;;3.70;;
43216;SDS011;71549;42.686;23.300;2024-02-23T06:56:39;4.70;;;3.70;;
43216;SDS011;71549;42.686;23.300;2024-02-23T06:58:41;4.15;;;3.72;;
43216;SDS011;71549;42.686;23.300;2024-02-23T07:00:43;4.03;;;3.72;;
43216;SDS011;71549;42.686;23.300;2024-02-23T07:02:47;3.38;;;3.10;;
43216;SDS011;71549;42.686;23.300;2024-02-23T07:04:48;4.75;;;4.13;;
43216;SDS011;71549;42.686;23.300;2024-02-23T07:06:50;4.60;;;4.05;;
43216;SDS011;71549;42.686;23.300;2024-02-23T07:08:52;4.40;;;4.00;;
43216;SDS011;71549;42.686;23.300;2024-02-23T07:10:54;4.13;;;3.78;;
43216;SDS011;71549;42.686;23.300;2024-02-23T07:12:57;4.13;;;3.72;;
43216;SDS011;71549;42.686;23.300;2024-02-23T07:14:59;4.57;;;4.07;;
43216;SDS011;71549;42.686;23.300;2024-02-23T07:17:02;5.22;;;4.72;;
43216;SDS011;71549;42.686;23.300;2024-02-23T07:19:06;4.60;;;4.20;;
43216;SDS011;71549;42.686;23.300;2024-02-23T07:21:09;4.63;;;4.28;;
43216;SDS011;71549;42.686;23.300;2024-02-23T07:23:11;4.53;;;4.13;;
43216;SDS011;71549;42.686;23.300;2024-02-23T07:25:15;4.30;;;3.90;;
43216;SDS011;71549;42.686;23.300;2024-02-23T07:27:18;4.50;;;4.10;;
43216;SDS011;71549;42.686;23.300;2024-02-23T07:29:20;4.43;;;3.97;;
43216;SDS011;71549;42.686;23.300;2024-02-23T07:31:22;4.40;;;3.63;;
43216;SDS011;71549;42.686;23.300;2024-02-23T07:33:25;4.30;;;3.90;;
43216;SDS011;71549;42.686;23.300;2024-02-23T07:35:28;3.78;;;3.47;;
43216;SDS011;71549;42.686;23.300;2024-02-23T07:37:30;5.85;;;4.10;;
43216;SDS011;71549;42.686;23.300;2024-02-23T07:39:32;4.05;;;3.75;;
43216;SDS011;71549;42.686;23.300;2024-02-23T07:41:34;4.15;;;3.75;;
43216;SDS011;71549;42.686;23.300;2024-02-23T07:43:36;4.15;;;3.85;;
43216;SDS011;71549;42.686;23.300;2024-02-23T07:45:38;4.32;;;3.92;;
43216;SDS011;71549;42.686;23.300;2024-02-23T07:47:41;4.00;;;3.63;;
43216;SDS011;71549;42.686;23.300;2024-02-23T07:49:43;4.65;;;4.15;;
43216;SDS011;71549;42.686;23.300;2024-02-23T07:51:46;4.40;;;4.00;;
43216;SDS011;71549;42.686;23.300;2024-02-23T07:53:48;4.80;;;4.40;;
43216;SDS011;71549;42.686;23.300;2024-02-23T07:55:50;4.85;;;4.10;;
43216;SDS011;71549;42.686;23.300;2024-02-23T07:57:52;4.35;;;3.97;;
43216;SDS011;71549;42.686;23.300;2024-02-23T08:00:01;4.10;;;3.80;;
43216;SDS011;71549;42.686;23.300;2024-02-23T08:02:04;4.60;;;4.15;;
43216;SDS011;71549;42.686;23.300;2024-02-23T08:04:06;4.50;;;4.10;;
43216;SDS011;71549;42.686;23.300;2024-02-23T08:06:08;4.30;;;3.85;;
43216;SDS011;71549;42.686;23.300;2024-02-23T08:08:11;5.13;;;4.20;;
43216;SDS011;71549;42.686;23.300;2024-02-23T08:10:13;3.75;;;3.45;;
43216;SDS011;71549;42.686;23.300;2024-02-23T08:12:16;4.05;;;3.67;;
43216;SDS011;71549;42.686;23.300;2024-02-23T08:14:18;3.83;;;3.53;;
43216;SDS011;71549;42.686;23.300;2024-02-23T08:16:20;4.13;;;3.83;;
43216;SDS011;71549;42.686;23.300;2024-02-23T08:18:22;4.78;;;4.25;;
43216;SDS011;71549;42.686;23.300;2024-02-23T08:20:24;5.85;;;3.75;;
43216;SDS011;71549;42.686;23.300;2024-02-23T08:22:26;4.00;;;3.70;;
43216;SDS011;71549;42.686;23.300;2024-02-23T08:24:29;3.85;;;3.55;;
43216;SDS011;71549;42.686;23.300;2024-02-23T08:26:31;3.83;;;3.53;;
43216;SDS011;71549;42.686;23.300;2024-02-23T08:28:34;4.80;;;4.40;;
43216;SDS011;71549;42.686;23.300;2024-02-23T08:30:36;4.40;;;4.00;;
43216;SDS011;71549;42.686;23.300;2024-02-23T08:32:38;5.03;;;3.90;;
43216;SDS011;71549;42.686;23.300;2024-02-23T08:34:40;4.78;;;3.78;;
43216;SDS011;71549;42.686;23.300;2024-02-23T08:36:42;4.25;;;3.85;;
43216;SDS011;71549;42.686;23.300;2024-02-23T08:38:44;4.07;;;3.78;;
43216;SDS011;71549;42.686;23.300;2024-02-23T08:40:47;4.55;;;3.90;;
43216;SDS011;71549;42.686;23.300;2024-02-23T08:42:50;4.55;;;4.15;;
43216;SDS011;71549;42.686;23.300;2024-02-23T08:44:52;4.03;;;3.63;;
43216;SDS011;71549;42.686;23.300;2024-02-23T08:46:55;4.28;;;3.97;;
43216;SDS011;71549;42.686;23.300;2024-02-23T08:48:57;5.45;;;4.25;;
43216;SDS011;71549;42.686;23.300;2024-02-23T08:50:59;4.05;;;3.75;;
43216;SDS011;71549;42.686;23.300;2024-02-23T08:53:01;5.13;;;4.70;;
43216;SDS011;71549;42.686;23.300;2024-02-23T08:55:03;3.67;;;3.38;;
43216;SDS011;71549;42.686;23.300;2024-02-23T08:57:07;4.28;;;3.88;;
43216;SDS011;71549;42.686;23.300;2024-02-23T08:59:09;4.35;;;3.95;;
43216;SDS011;71549;42.686;23.300;2024-02-23T09:01:11;4.20;;;3.47;;
43216;SDS011;71549;42.686;23.300;2024-02-23T09:03:13;4.20;;;3.80;;
43216;SDS011;71549;42.686;23.300;2024-02-23T09:05:15;3.92;;;3.63;;
43216;SDS011;71549;42.686;23.300;2024-02-23T09:07:34;3.88;;;3.58;;
43216;SDS011;71549;42.686;23.300;2024-02-23T09:09:37;4.55;;;3.83;;
43216;SDS011;71549;42.686;23.300;2024-02-23T09:11:39;4.88;;;4.38;;
43216;SDS011;71549;42.686;23.300;2024-02-23T09:13:42;4.38;;;4.07;;
43216;SDS011;71549;42.686;23.300;2024-02-23T09:17:46;4.50;;;4.10;;
43216;SDS011;71549;42.686;23.300;2024-02-23T09:19:47;4.40;;;4.00;;
43216;SDS011;71549;42.686;23.300;2024-02-23T09:21:49;4.40;;;4.00;;
43216;SDS011;71549;42.686;23.300;2024-02-23T09:23:51;4.47;;;4.07;;
43216;SDS011;71549;42.686;23.300;2024-02-23T09:25:52;4.47;;;4.10;;
43216;SDS011;71549;42.686;23.300;2024-02-23T09:27:56;4.90;;;4.38;;
43216;SDS011;71549;42.686;23.300;2024-02-23T09:30:00;4.30;;;3.90;;
43216;SDS011;71549;42.686;23.300;2024-02-23T09:34:05;4.57;;;4.18;;
43216;SDS011;71549;42.686;23.300;2024-02-23T09:36:07;5.00;;;4.60;;
43216;SDS011;71549;42.686;23.300;2024-02-23T09:38:10;4.35;;;3.95;;
43216;SDS011;71549;42.686;23.300;2024-02-23T09:40:12;4.57;;;4.18;;
43216;SDS011;71549;42.686;23.300;2024-02-23T09:42:15;4.57;;;4.18;;
43216;SDS011;71549;42.686;23.300;2024-02-23T09:44:18;4.15;;;3.78;;
43216;SDS011;71549;42.686;23.300;2024-02-23T09:46:24;4.20;;;3.90;;
43216;SDS011;71549;42.686;23.300;2024-02-23T09:48:27;5.07;;;4.38;;
43216;SDS011;71549;42.686;23.300;2024-02-23T09:50:30;6.53;;;4.50;;
43216;SDS011;71549;42.686;23.300;2024-02-23T09:52:33;4.68;;;4.25;;
43216;SDS011;71549;42.686;23.300;2024-02-23T09:54:35;4.10;;;3.80;;
43216;SDS011;71549;42.686;23.300;2024-02-23T09:56:38;4.93;;;4.40;;
43216;SDS011;71549;42.686;23.300;2024-02-23T09:58:41;4.35;;;3.95;;
43216;SDS011;71549;42.686;23.300;2024-02-23T10:00:44;4.15;;;3.75;;
43216;SDS011;71549;42.686;23.300;2024-02-23T10:02:47;4.10;;;3.72;;
43216;SDS011;71549;42.686;23.300;2024-02-23T10:04:50;4.40;;;3.88;;
43216;SDS011;71549;42.686;23.300;2024-02-23T10:06:55;4.60;;;4.20;;
43216;SDS011;71549;42.686;23.300;2024-02-23T10:08:57;4.95;;;4.45;;
43216;SDS011;71549;42.686;23.300;2024-02-23T10:11:00;4.05;;;3.75;;
43216;SDS011;71549;42.686;23.300;2024-02-23T10:13:02;4.60;;;4.20;;
43216;SDS011;71549;42.686;23.300;2024-02-23T10:15:06;4.90;;;4.40;;
43216;SDS011;71549;42.686;23.300;2024-02-23T10:17:09;4.78;;;4.38;;
43216;SDS011;71549;42.686;23.300;2024-02-23T10:19:15;3.92;;;3.50;;
43216;SDS011;71549;42.686;23.300;2024-02-23T10:21:17;4.30;;;3.92;;
43216;SDS011;71549;42.686;23.300;2024-02-23T10:23:19;4.43;;;3.97;;
43216;SDS011;71549;42.686;23.300;2024-02-23T10:25:21;3.83;;;3.53;;
43216;SDS011;71549;42.686;23.300;2024-02-23T10:27:23;4.28;;;3.88;;
43216;SDS011;71549;42.686;23.300;2024-02-23T10:29:26;4.40;;;4.00;;
43216;SDS011;71549;42.686;23.300;2024-02-23T10:31:28;4.50;;;4.10;;
43216;SDS011;71549;42.686;23.300;2024-02-23T10:33:35;4.05;;;3.75;;
43216;SDS011;71549;42.686;23.300;2024-02-23T10:37:46;3.85;;;3.55;;
43216;SDS011;71549;42.686;23.300;2024-02-23T10:39:50;4.28;;;3.97;;
43216;SDS011;71549;42.686;23.300;2024-02-23T10:41:59;4.88;;;4.47;;
43216;SDS011;71549;42.686;23.300;2024-02-23T10:44:05;4.30;;;3.90;;
43216;SDS011;71549;42.686;23.300;2024-02-23T10:46:08;4.25;;;3.85;;
43216;SDS011;71549;42.686;23.300;2024-02-23T10:48:13;4.20;;;3.90;;
43216;SDS011;71549;42.686;23.300;2024-02-23T10:50:17;4.50;;;4.20;;
43216;SDS011;71549;42.686;23.300;2024-02-23T10:52:21;4.22;;;3.90;;
43216;SDS011;71549;42.686;23.300;2024-02-23T10:54:26;4.43;;;4.03;;
43216;SDS011;71549;42.686;23.300;2024-02-23T10:56:28;3.80;;;3.50;;
43216;SDS011;71549;42.686;23.300;2024-02-23T10:58:30;4.40;;;4.05;;
43216;SDS011;71549;42.686;23.300;2024-02-23T11:00:33;4.00;;;3.70;;
43216;SDS011;71549;42.686;23.300;2024-02-23T11:02:34;4.90;;;4.47;;
43216;SDS011;71549;42.686;23.300;2024-02-23T11:04:40;3.97;;;3.67;;
43216;SDS011;71549;42.686;23.300;2024-02-23T11:06:48;4.07;;;3.67;;
43216;SDS011;71549;42.686;23.300;2024-02-23T11:08:52;4.93;;;3.70;;
43216;SDS011;71549;42.686;23.300;2024-02-23T11:10:55;4.35;;;4.00;;
43216;SDS011;71549;42.686;23.300;2024-02-23T11:12:59;4.20;;;3.90;;
43216;SDS011;71549;42.686;23.300;2024-02-23T11:15:02;4.25;;;3.95;;
43216;SDS011;71549;42.686;23.300;2024-02-23T11:17:05;4.35;;;3.80;;
43216;SDS011;71549;42.686;23.300;2024-02-23T11:19:08;3.97;;;3.67;;
43216;SDS011;71549;42.686;23.300;2024-02-23T11:21:11;4.57;;;4.15;;
43216;SDS011;71549;42.686;23.300;2024-02-23T11:23:13;3.47;;;3.28;;
43216;SDS011;71549;42.686;23.300;2024-02-23T11:25:18;4.00;;;3.53;;
43216;SDS011;71549;42.686;23.300;2024-02-23T11:27:21;4.05;;;3.75;;
43216;SDS011;71549;42.686;23.300;2024-02-23T11:29:32;4.43;;;4.03;;
43216;SDS011;71549;42.686;23.300;2024-02-23T11:31:34;3.70;;;3.40;;
43216;SDS011;71549;42.686;23.300;2024-02-23T11:35:46;3.95;;;3.65;;
43216;SDS011;71549;42.686;23.300;2024-02-23T11:37:52;4.05;;;3.65;;
43216;SDS011;71549;42.686;23.300;2024-02-23T11:40:00;4.00;;;3.70;;
43216;SDS011;71549;42.686;23.300;2024-02-23T11:42:07;4.30;;;3.70;;
43216;SDS011;71549;42.686;23.300;2024-02-23T11:44:10;3.58;;;3.28;;
43216;SDS011;71549;42.686;23.300;2024-02-23T11:46:14;4.20;;;3.80;;
43216;SDS011;71549;42.686;23.300;2024-02-23T11:48:16;3.97;;;3.60;;
43216;SDS011;71549;42.686;23.300;2024-02-23T11:50:18;4.50;;;4.10;;
43216;SDS011;71549;42.686;23.300;2024-02-23T11:52:21;4.38;;;3.97;;
43216;SDS011;71549;42.686;23.300;2024-02-23T11:54:23;3.53;;;3.22;;
43216;SDS011;71549;42.686;23.300;2024-02-23T11:56:25;4.22;;;3.83;;
43216;SDS011;71549;42.686;23.300;2024-02-23T11:58:28;3.88;;;3.58;;
43216;SDS011;71549;42.686;23.300;2024-02-23T12:00:30;3.80;;;3.50;;
43216;SDS011;71549;42.686;23.300;2024-02-23T12:02:32;4.00;;;3.50;;
43216;SDS011;71549;42.686;23.300;2024-02-23T12:04:34;4.20;;;3.80;;
43216;SDS011;71549;42.686;23.300;2024-02-23T12:06:36;4.25;;;3.85;;
43216;SDS011;71549;42.686;23.300;2024-02-23T12:08:37;4.32;;;3.78;;
43216;SDS011;71549;42.686;23.300;2024-02-23T12:10:40;4.30;;;4.00;;
43216;SDS011;71549;42.686;23.300;2024-02-23T12:12:42;4.13;;;3.72;;
43216;SDS011;71549;42.686;23.300;2024-02-23T12:14:45;3.75;;;3.45;;
43216;SDS011;71549;42.686;23.300;2024-02-23T12:18:52;4.18;;;3.78;;
43216;SDS011;71549;42.686;23.300;2024-02-23T12:20:58;3.63;;;3.33;;
43216;SDS011;71549;42.686;23.300;2024-02-23T12:23:01;4.55;;;3.63;;
43216;SDS011;71549;42.686;23.300;2024-02-23T12:25:03;4.55;;;3.70;;
43216;SDS011;71549;42.686;23.300;2024-02-23T12:27:07;4.03;;;3.72;;
43216;SDS011;71549;42.686;23.300;2024-02-23T12:29:09;3.90;;;3.47;;
43216;SDS011;71549;42.686;23.300;2024-02-23T12:31:12;4.03;;;3.72;;